Philadelphia, PA (19153)

5:54 PM EST on December 06, 2016 (GMT -0500)
Glenolden | | Change Station

Elev 98 ft 39.89 °N, 75.29 °W | Updated 53 seconds ago

Rain
Rain Mist
40.7 °F
Feels Like 41 °F
N
0.0
Wind Variable Wind from SSE

Today
High -- | Low -- °F
--% Chance of Precip.
Yesterday
High -- | Low -- °F
Precip. -- in
Pressure 29.91 in
Visibility 5.0 miles
Clouds Overcast 7500 ft
Windchill 41 °F
Dew Point 37 °F
Humidity 88%
Rainfall 0.33 in
Snow Depth Not available.
7:08 AM 4:35 PM
Waxing Crescent, 46% visible
METAR KPHL 062154Z 05009KT 5SM RA BR OVC075 06/04 A2991 RMK AO2 PLE00 SLP129 P0013 T00560039
Pressure 29.91 in
Visibility 5.0 miles
Clouds Overcast 7500 ft
Windchill 41 °F
Dew Point 37 °F
Humidity 88%
Rainfall 0.33 in
Snow Depth Not available.
7:08 AM 4:35 PM
Waxing Crescent, 46% visible
METAR KPHL 062154Z 05009KT 5SM RA BR OVC075 06/04 A2991 RMK AO2 PLE00 SLP129 P0013 T00560039

10-Day Weather Forecast

Almanac

Astronomy

Dec. 06, 2016 Rise Set
Actual Time
Civil Twilight
Nautical Twilight
Astronomical Twilight
Moon
Length of Visible Light
Length of Day
Tomorrow will be .
, % of the Moon is Illuminated

Today's Extremes

State Highs State Lows

Community

WunderPhotos

Upload Photos

1,956,042 photos uploaded!

WunderBlog® & News

Nearby

Air Quality

  Air Quality AQ Index Pollutant
Not available.

Snow Depth

Station Depth Elevation

Earthquake Activity

City Distance Mag. Time & Date
Minimum magnitude displayed is 2.5.

Coastal Water Temperatures

Place Temperature

Stations

Nearby Weather Stations

Station Location Temp. Windchill Dew Point Humidity Wind Precip. Elev Updated Type
                   

Watches & Warnings

There are currently no watches in effect.